Armadores I — SY8463 — position and weather

sailwx.info

Track history (hours):
 
Tides and Currents Weather Stations Pressure Air Temp Water Temp Dewpoint Dewpoint Depression Visibility Wind Speed Wind Dir Waves Ship Positions

Armadores I

Last reported at 2014-Nov-28 15:10 UTC. Time now 2014-Nov-28 20:38 UTC.
Position N 37°57' E 023°37'.

Length 32 m; draft 5.3 m.

Type: Tug. MMSI: 240694000.

Date/timePositionNaut miles runAvg speedWind from/ knotsBaromVisibWave heightAir tempDewpointWater temp
2014-Nov-28 15:10N 37°57' E 023°37'0 0.0
2014-Nov-28 14:33N 37°57' E 023°37'0 0.0
2014-Nov-28 13:34N 37°57' E 023°37'0 0.0
2014-Nov-28 12:34N 37°57' E 023°37'0 0.0
2014-Nov-28 11:34N 37°57' E 023°37'2 1.7
2014-Nov-28 10:33N 37°57' E 023°38'4 4.1
2014-Nov-28 09:33N 37°57' E 023°33'6 6.0
2014-Nov-28 08:34N 37°58' E 023°26'2 1.9
2014-Nov-28 07:33N 37°57' E 023°24'7 7.3
2014-Nov-28 06:33N 38°00' E 023°32'4 4.1
2014-Nov-28 05:34N 37°57' E 023°35'0 0.3
2014-Nov-28 04:34N 37°57' E 023°35'0 0.0
2014-Nov-27 02:33N 37°57' E 023°35'2 1.5
2014-Nov-27 01:33N 37°56' E 023°36'2 1.6
2014-Nov-27 00:34N 37°57' E 023°37'0 0.0
2014-Nov-26 23:33N 37°57' E 023°37'0 0.0
2014-Nov-26 22:33N 37°57' E 023°37'0 0.0
2014-Nov-26 21:33N 37°57' E 023°37'0 0.0
2014-Nov-26 20:33N 37°57' E 023°37'0 0.0
2014-Nov-26 19:33N 37°57' E 023°37'0 0.0
2014-Nov-26 18:33N 37°57' E 023°37'0 0.0
2014-Nov-26 17:33N 37°57' E 023°37'0 0.0
2014-Nov-26 16:34N 37°57' E 023°37'2 2.2
2014-Nov-26 15:33N 37°58' E 023°34'0 0.0
2014-Nov-26 14:33N 37°58' E 023°34'0 0.0
2014-Nov-26 13:33N 37°58' E 023°34'0 0.0
2014-Nov-26 12:33N 37°58' E 023°34'1 1.4
2014-Nov-26 11:33N 37°57' E 023°35'1 1.4
2014-Nov-26 10:33N 37°58' E 023°34'0 0.0
2014-Nov-26 09:34N 37°58' E 023°34'0 0.1
2014-Nov-26 08:33N 37°57' E 023°34'0 0.1
2014-Nov-26 07:33N 37°58' E 023°34'1 1.1
2014-Nov-26 06:33N 37°57' E 023°35'0 0.1
2014-Nov-26 05:33N 37°57' E 023°35'1 1.0
2014-Nov-26 04:33N 37°57' E 023°37'0 0.0
2014-Nov-25 11:34N 37°57' E 023°37'0 0.0
2014-Nov-25 10:33N 37°57' E 023°37'1 1.1
2014-Nov-25 09:33N 37°57' E 023°35'4 3.7
2014-Nov-25 08:33N 38°00' E 023°32'7 6.9
2014-Nov-25 07:33N 37°57' E 023°24'1 1.0
2014-Nov-25 06:33N 37°58' E 023°24'0 0.0
2014-Nov-25 05:33N 37°58' E 023°24'0 0.0
2014-Nov-25 04:33N 37°58' E 023°24'0 0.0
2014-Nov-25 03:33N 37°58' E 023°24'0 0.0
2014-Nov-25 02:33N 37°58' E 023°24'0 0.0
2014-Nov-25 01:33N 37°58' E 023°24'0 0.0
2014-Nov-25 00:33N 37°58' E 023°24'0 0.0
2014-Nov-24 23:33N 37°58' E 023°24'0 0.0
2014-Nov-24 22:33N 37°58' E 023°24'0 0.0
2014-Nov-24 21:33N 37°58' E 023°24'0 0.0
2014-Nov-24 20:33N 37°58' E 023°24'0 0.0
2014-Nov-24 19:33N 37°58' E 023°24'1 1.2
2014-Nov-24 18:34N 37°58' E 023°23'1 1.3
2014-Nov-24 17:33N 37°58' E 023°24'0 0.0
2014-Nov-24 16:33N 37°58' E 023°24'0 0.0
2014-Nov-24 15:33N 37°58' E 023°24'0 0.0
2014-Nov-24 14:33N 37°58' E 023°24'0 0.0
2014-Nov-24 13:33N 37°58' E 023°24'0 0.0
2014-Nov-24 12:32N 37°58' E 023°24'0 0.0
2014-Nov-24 11:32N 37°58' E 023°24'0 0.0
2014-Nov-24 10:33N 37°58' E 023°24'0 0.0
2014-Nov-24 09:33N 37°58' E 023°24'0 0.0
2014-Nov-24 08:33N 37°58' E 023°24'0 0.0
2014-Nov-24 07:33N 37°58' E 023°24'0 0.0
2014-Nov-24 06:33N 37°58' E 023°24'0 0.0
2014-Nov-24 05:33N 37°58' E 023°24'0 0.0
2014-Nov-24 04:33N 37°58' E 023°24'0 0.0
2014-Nov-24 03:33N 37°58' E 023°24'0 0.0
2014-Nov-24 02:33N 37°58' E 023°24'0 0.0
2014-Nov-24 01:33N 37°58' E 023°24'0 0.0
2014-Nov-24 00:33N 37°58' E 023°24'0 0.0
2014-Nov-23 23:33N 37°58' E 023°24'0 0.0
2014-Nov-23 22:33N 37°58' E 023°24'0 0.0
2014-Nov-23 21:33N 37°58' E 023°24'0 0.0
2014-Nov-23 20:33N 37°58' E 023°24'0 0.0
2014-Nov-23 19:33N 37°58' E 023°24'0 0.0
2014-Nov-23 18:33N 37°58' E 023°24'0 0.0
2014-Nov-23 17:33N 37°58' E 023°24'0 0.0
2014-Nov-23 16:33N 37°58' E 023°24'0 0.0
2014-Nov-23 15:33N 37°58' E 023°24'0 0.0
2014-Nov-23 14:33N 37°58' E 023°24'0 0.0
2014-Nov-23 13:33N 37°58' E 023°24'0 0.0
2014-Nov-23 12:33N 37°58' E 023°24'0 0.0
2014-Nov-23 11:33N 37°58' E 023°24'0 0.0
2014-Nov-23 10:33N 37°58' E 023°24'0 0.0
2014-Nov-23 09:33N 37°58' E 023°24'1 1.1
2014-Nov-23 08:33N 37°58' E 023°23'2 1.9
2014-Nov-23 07:33N 37°58' E 023°25'7 7.4
2014-Nov-23 06:33N 37°57' E 023°35'1 1.0
2014-Nov-23 05:33N 37°56' E 023°35'2 2.1
2014-Nov-23 04:33N 37°57' E 023°37'0 0.0
2014-Nov-22 11:33N 37°57' E 023°37'0 0.0
2014-Nov-22 10:34N 37°57' E 023°37'0 0.0
2014-Nov-22 09:33N 37°57' E 023°37'1 0.9
2014-Nov-22 08:33N 37°57' E 023°36'1 1.0
2014-Nov-22 07:33N 37°57' E 023°37'0 0.0
2014-Nov-22 06:33N 37°57' E 023°37'0 0.0
2014-Nov-22 05:33N 37°57' E 023°37'1 1.1
2014-Nov-22 04:33N 37°57' E 023°35'1 0.1
2014-Nov-21 14:33N 37°57' E 023°37'0 0.0
2014-Nov-21 13:33N 37°57' E 023°37'0 0.0
2014-Nov-21 12:33N 37°57' E 023°37'0 0.0
2014-Nov-21 11:33N 37°57' E 023°37'0 0.0
2014-Nov-21 10:33N 37°57' E 023°37'0 0.0
2014-Nov-21 09:33N 37°57' E 023°37'0 0.0
2014-Nov-21 08:33N 37°57' E 023°37'2 2.2
2014-Nov-21 07:34N 37°58' E 023°34'0 0.5
2014-Nov-21 06:33N 37°57' E 023°33'2 1.7
2014-Nov-21 05:33N 37°57' E 023°35'1 1.1
2014-Nov-21 04:33N 37°57' E 023°37'0 0.0
2014-Nov-20 11:33N 37°57' E 023°37'2 2.3
2014-Nov-20 10:33N 37°57' E 023°34'0 0.0
2014-Nov-20 09:33N 37°57' E 023°34'0 0.0
2014-Nov-20 08:33N 37°57' E 023°34'4 3.8
2014-Nov-20 07:34N 37°57' E 023°38'0 0.0
2014-Nov-20 06:33N 37°57' E 023°38'3 2.7
2014-Nov-20 05:33N 37°57' E 023°35'2 1.9
2014-Nov-20 04:33N 37°56' E 023°37'1 0.8
2014-Nov-20 03:28N 37°57' E 023°38'0 0.0
2014-Nov-20 02:13N 37°57' E 023°38'5 7.4
2014-Nov-20 01:33N 37°54' E 023°33'10 9.7
2014-Nov-20 00:34N 37°53' E 023°21'10 9.6
2014-Nov-19 23:33N 37°54' E 023°09'  
Track history (hours):
 
Tides and Currents Weather Stations Pressure Air Temp Water Temp Dewpoint Dewpoint Depression Visibility Wind Speed Wind Dir Waves Ship Positions

Armadores I

Last reported at 2014-Nov-28 15:10 UTC. Time now 2014-Nov-28 20:38 UTC.
Position N 37°57' E 023°37'.

Length 32 m; draft 5.3 m.

Type: Tug. MMSI: 240694000.

Date/timePositionNaut miles runAvg speedWind from/ knotsBaromVisibWave heightAir tempDewpointWater temp
2014-Nov-28 15:10N 37°57' E 023°37'0 0.0
2014-Nov-28 14:33N 37°57' E 023°37'0 0.0
2014-Nov-28 13:34N 37°57' E 023°37'0 0.0
2014-Nov-28 12:34N 37°57' E 023°37'0 0.0
2014-Nov-28 11:34N 37°57' E 023°37'2 1.7
2014-Nov-28 10:33N 37°57' E 023°38'4 4.1
2014-Nov-28 09:33N 37°57' E 023°33'6 6.0
2014-Nov-28 08:34N 37°58' E 023°26'2 1.9
2014-Nov-28 07:33N 37°57' E 023°24'7 7.3
2014-Nov-28 06:33N 38°00' E 023°32'4 4.1
2014-Nov-28 05:34N 37°57' E 023°35'0 0.3
2014-Nov-28 04:34N 37°57' E 023°35'0 0.0
2014-Nov-27 02:33N 37°57' E 023°35'2 1.5
2014-Nov-27 01:33N 37°56' E 023°36'2 1.6
2014-Nov-27 00:34N 37°57' E 023°37'0 0.0
2014-Nov-26 23:33N 37°57' E 023°37'0 0.0
2014-Nov-26 22:33N 37°57' E 023°37'0 0.0
2014-Nov-26 21:33N 37°57' E 023°37'0 0.0
2014-Nov-26 20:33N 37°57' E 023°37'0 0.0
2014-Nov-26 19:33N 37°57' E 023°37'0 0.0
2014-Nov-26 18:33N 37°57' E 023°37'0 0.0
2014-Nov-26 17:33N 37°57' E 023°37'0 0.0
2014-Nov-26 16:34N 37°57' E 023°37'2 2.2
2014-Nov-26 15:33N 37°58' E 023°34'0 0.0
2014-Nov-26 14:33N 37°58' E 023°34'0 0.0
2014-Nov-26 13:33N 37°58' E 023°34'0 0.0
2014-Nov-26 12:33N 37°58' E 023°34'1 1.4
2014-Nov-26 11:33N 37°57' E 023°35'1 1.4
2014-Nov-26 10:33N 37°58' E 023°34'0 0.0
2014-Nov-26 09:34N 37°58' E 023°34'0 0.1
2014-Nov-26 08:33N 37°57' E 023°34'0 0.1
2014-Nov-26 07:33N 37°58' E 023°34'1 1.1
2014-Nov-26 06:33N 37°57' E 023°35'0 0.1
2014-Nov-26 05:33N 37°57' E 023°35'1 1.0
2014-Nov-26 04:33N 37°57' E 023°37'0 0.0
2014-Nov-25 11:34N 37°57' E 023°37'0 0.0
2014-Nov-25 10:33N 37°57' E 023°37'1 1.1
2014-Nov-25 09:33N 37°57' E 023°35'4 3.7
2014-Nov-25 08:33N 38°00' E 023°32'7 6.9
2014-Nov-25 07:33N 37°57' E 023°24'1 1.0
2014-Nov-25 06:33N 37°58' E 023°24'0 0.0
2014-Nov-25 05:33N 37°58' E 023°24'0 0.0
2014-Nov-25 04:33N 37°58' E 023°24'0 0.0
2014-Nov-25 03:33N 37°58' E 023°24'0 0.0
2014-Nov-25 02:33N 37°58' E 023°24'0 0.0
2014-Nov-25 01:33N 37°58' E 023°24'0 0.0
2014-Nov-25 00:33N 37°58' E 023°24'0 0.0
2014-Nov-24 23:33N 37°58' E 023°24'0 0.0
2014-Nov-24 22:33N 37°58' E 023°24'0 0.0
2014-Nov-24 21:33N 37°58' E 023°24'0 0.0
2014-Nov-24 20:33N 37°58' E 023°24'0 0.0
2014-Nov-24 19:33N 37°58' E 023°24'1 1.2
2014-Nov-24 18:34N 37°58' E 023°23'1 1.3
2014-Nov-24 17:33N 37°58' E 023°24'0 0.0
2014-Nov-24 16:33N 37°58' E 023°24'0 0.0
2014-Nov-24 15:33N 37°58' E 023°24'0 0.0
2014-Nov-24 14:33N 37°58' E 023°24'0 0.0
2014-Nov-24 13:33N 37°58' E 023°24'0 0.0
2014-Nov-24 12:32N 37°58' E 023°24'0 0.0
2014-Nov-24 11:32N 37°58' E 023°24'0 0.0
2014-Nov-24 10:33N 37°58' E 023°24'0 0.0
2014-Nov-24 09:33N 37°58' E 023°24'0 0.0
2014-Nov-24 08:33N 37°58' E 023°24'0 0.0
2014-Nov-24 07:33N 37°58' E 023°24'0 0.0
2014-Nov-24 06:33N 37°58' E 023°24'0 0.0
2014-Nov-24 05:33N 37°58' E 023°24'0 0.0
2014-Nov-24 04:33N 37°58' E 023°24'0 0.0
2014-Nov-24 03:33N 37°58' E 023°24'0 0.0
2014-Nov-24 02:33N 37°58' E 023°24'0 0.0
2014-Nov-24 01:33N 37°58' E 023°24'0 0.0
2014-Nov-24 00:33N 37°58' E 023°24'0 0.0
2014-Nov-23 23:33N 37°58' E 023°24'0 0.0
2014-Nov-23 22:33N 37°58' E 023°24'0 0.0
2014-Nov-23 21:33N 37°58' E 023°24'0 0.0
2014-Nov-23 20:33N 37°58' E 023°24'0 0.0
2014-Nov-23 19:33N 37°58' E 023°24'0 0.0
2014-Nov-23 18:33N 37°58' E 023°24'0 0.0
2014-Nov-23 17:33N 37°58' E 023°24'0 0.0
2014-Nov-23 16:33N 37°58' E 023°24'0 0.0
2014-Nov-23 15:33N 37°58' E 023°24'0 0.0
2014-Nov-23 14:33N 37°58' E 023°24'0 0.0
2014-Nov-23 13:33N 37°58' E 023°24'0 0.0
2014-Nov-23 12:33N 37°58' E 023°24'0 0.0
2014-Nov-23 11:33N 37°58' E 023°24'0 0.0
2014-Nov-23 10:33N 37°58' E 023°24'0 0.0
2014-Nov-23 09:33N 37°58' E 023°24'1 1.1
2014-Nov-23 08:33N 37°58' E 023°23'2 1.9
2014-Nov-23 07:33N 37°58' E 023°25'7 7.4
2014-Nov-23 06:33N 37°57' E 023°35'1 1.0
2014-Nov-23 05:33N 37°56' E 023°35'2 2.1
2014-Nov-23 04:33N 37°57' E 023°37'0 0.0
2014-Nov-22 11:33N 37°57' E 023°37'0 0.0
2014-Nov-22 10:34N 37°57' E 023°37'0 0.0
2014-Nov-22 09:33N 37°57' E 023°37'1 0.9
2014-Nov-22 08:33N 37°57' E 023°36'1 1.0
2014-Nov-22 07:33N 37°57' E 023°37'0 0.0
2014-Nov-22 06:33N 37°57' E 023°37'0 0.0
2014-Nov-22 05:33N 37°57' E 023°37'1 1.1
2014-Nov-22 04:33N 37°57' E 023°35'1 0.1
2014-Nov-21 14:33N 37°57' E 023°37'0 0.0
2014-Nov-21 13:33N 37°57' E 023°37'0 0.0
2014-Nov-21 12:33N 37°57' E 023°37'0 0.0
2014-Nov-21 11:33N 37°57' E 023°37'0 0.0
2014-Nov-21 10:33N 37°57' E 023°37'0 0.0
2014-Nov-21 09:33N 37°57' E 023°37'0 0.0
2014-Nov-21 08:33N 37°57' E 023°37'2 2.2
2014-Nov-21 07:34N 37°58' E 023°34'0 0.5
2014-Nov-21 06:33N 37°57' E 023°33'2 1.7
2014-Nov-21 05:33N 37°57' E 023°35'1 1.1
2014-Nov-21 04:33N 37°57' E 023°37'0 0.0
2014-Nov-20 11:33N 37°57' E 023°37'2 2.3
2014-Nov-20 10:33N 37°57' E 023°34'0 0.0
2014-Nov-20 09:33N 37°57' E 023°34'0 0.0
2014-Nov-20 08:33N 37°57' E 023°34'4 3.8
2014-Nov-20 07:34N 37°57' E 023°38'0 0.0
2014-Nov-20 06:33N 37°57' E 023°38'3 2.7
2014-Nov-20 05:33N 37°57' E 023°35'2 1.9
2014-Nov-20 04:33N 37°56' E 023°37'1 0.8
2014-Nov-20 03:28N 37°57' E 023°38'0 0.0
2014-Nov-20 02:13N 37°57' E 023°38'5 7.4
2014-Nov-20 01:33N 37°54' E 023°33'10 9.7
2014-Nov-20 00:34N 37°53' E 023°21'10 9.6
2014-Nov-19 23:33N 37°54' E 023°09'  

Dump ship's entire track history